This is the latest recevied weather packets stored in our database for station/object K5OBH. If no packets are shown the sender has not sent any weather packets the latest 10 day(s).
| Time | Temp. | Humidity | Pressure | Rain* | Wind** | Luminosity | Snow |
|---|---|---|---|---|---|---|---|
| 1777660875 | 20° C | 45% | 1018.1 hPa | 0 mm | - | 330 W/m² | - |
| 1777660573 | 19.44° C | 46% | 1018.3 hPa | 0 mm | - | 447 W/m² | - |
| 1777660269 | 20° C | 46% | 1018 hPa | 0 mm | - | 590 W/m² | - |
| 1777659966 | 19.44° C | 47% | 1018.3 hPa | 0 mm | - | 645 W/m² | - |
| 1777659663 | 19.44° C | 47% | 1018.4 hPa | 0 mm | - | 523 W/m² | - |
| 1777659360 | 18.89° C | 47% | 1018.8 hPa | 0 mm | - | 599 W/m² | - |
| 1777659057 | 19.44° C | 47% | 1018.7 hPa | 0 mm | - | 258 W/m² | - |
| 1777658755 | 20° C | 45% | 1018.9 hPa | 0 mm | - | 690 W/m² | - |
| 1777658450 | 20° C | 42% | 1018.6 hPa | 0 mm | - | 946 W/m² | - |
| 1777658147 | 18.89° C | 50% | 1018.8 hPa | 0 mm | - | 835 W/m² | - |
| 1777657844 | 18.89° C | 53% | 1018.7 hPa | 0 mm | - | 479 W/m² | - |
| 1777657541 | 18.89° C | 50% | 1018.9 hPa | 0 mm | - | 513 W/m² | - |
| 1777657239 | 18.89° C | 55% | 1018.8 hPa | 0 mm | - | 494 W/m² | - |
| 1777656936 | 19.44° C | 52% | 1018.9 hPa | 0 mm | - | 506 W/m² | - |
| 1777656633 | 19.44° C | 52% | 1018.9 hPa | 0 mm | - | 632 W/m² | - |
| 1777656328 | 18.89° C | 54% | 1018.9 hPa | 0 mm | - | 542 W/m² | - |
| 1777656024 | 18.89° C | 55% | 1019.2 hPa | 0 mm | - | 562 W/m² | - |
| 1777655720 | 19.44° C | 55% | 1019 hPa | 0 mm | - | 559 W/m² | - |
| 1777655417 | 18.89° C | 57% | 1019 hPa | 0 mm | - | 489 W/m² | - |
| 1777655114 | 18.33° C | 56% | 1019 hPa | 0 mm | - | 521 W/m² | - |
| 1777654811 | 19.44° C | 55% | 1018.9 hPa | 0 mm | - | 769 W/m² | - |
| 1777654509 | 18.89° C | 55% | 1018.9 hPa | 0 mm | - | 764 W/m² | - |
| 1777654206 | 18.33° C | 59% | 1019 hPa | 0 mm | - | 771 W/m² | - |
| 1777653904 | 18.89° C | 59% | 1018.8 hPa | 0 mm | - | 710 W/m² | - |
| 1777653600 | 18.33° C | 59% | 1019 hPa | 0 mm | - | 708 W/m² | - |
* Rain latest hour (hover to see other rain measurements)
** Current wind speed in m/s (hover to see current wind gust speed)